logo
Search for airport 
image banner adimage banner adimage banner ad
image banner ad

EPSLA - Slawno

Located in , Poland

ICAO - , IATA -

Data provided by Airmate  

General information

Coordinates: N54°23'34" E16°40'56"
Elevation is 98 feet MSL.
 
View others Airports in West Pomerania

Operational data

Special qualification required
Current time UTC:
Current local time:
Weather at : EPDA - Darlowo ( 21 km )
TAF: TAF EPDA 171100Z 1712/1724 24010KT 9999 BKN030 PROB30 TEMPO 1712/1716 5000 SHRA BKN030TCU
View NOTAMs / SUP AIP / TFR affecting this airport [VIEW]
Communications frequencies: [VIEW]

Runways:

RWY identifierQFULength (ft)Width (ft)SurfaceLDA (ft)
04-1°1457164GRASS
22-1°1457164GRASS

Airport contact information

Address: Poland

Satellite view of EPSLA